createdAt,value
2022-08-07T00:00:11.569Z,70.70
2022-08-07T00:02:39.890Z,70.77
2022-08-07T00:04:35.182Z,70.79
2022-08-07T00:06:37.350Z,70.78
2022-08-07T00:08:47.183Z,70.34
2022-08-07T00:10:57.406Z,70.28
2022-08-07T00:13:23.924Z,69.91
2022-08-07T00:15:25.790Z,69.62
2022-08-07T00:17:39.086Z,70.03
2022-08-07T00:20:00.156Z,70.04
2022-08-07T00:22:03.304Z,69.95
2022-08-07T00:24:05.574Z,70.07
2022-08-07T00:26:18.917Z,70.09
2022-08-07T00:28:34.031Z,70.20
2022-08-07T00:30:35.851Z,70.13
2022-08-07T00:32:37.895Z,70.04
2022-08-07T00:34:41.010Z,70.57
2022-08-07T00:36:43.699Z,70.28
2022-08-07T00:38:45.293Z,70.16
2022-08-07T00:40:46.836Z,70.58
2022-08-07T00:42:50.298Z,70.08
2022-08-07T00:44:51.847Z,70.29
2022-08-07T00:46:53.835Z,70.47
2022-08-07T00:48:56.806Z,70.38
2022-08-07T00:51:03.775Z,70.20
2022-08-07T00:53:05.271Z,70.17
2022-08-07T00:55:11.106Z,70.17
2022-08-07T00:57:13.149Z,70.48
2022-08-07T00:59:14.717Z,71.34
2022-08-07T01:01:18.309Z,71.28
2022-08-07T01:03:19.958Z,71.03
2022-08-07T01:05:51.643Z,70.86
2022-08-07T01:07:55.399Z,70.87
2022-08-07T01:10:04.181Z,70.63
2022-08-07T01:12:29.171Z,70.87
2022-08-07T01:14:30.693Z,70.67
2022-08-07T01:16:32.685Z,70.47
2022-08-07T01:18:35.010Z,70.36
2022-08-07T01:20:44.874Z,70.69
2022-08-07T01:23:12.965Z,70.38
2022-08-07T01:25:53.854Z,70.38
2022-08-07T01:27:38.439Z,70.41
2022-08-07T01:29:53.026Z,70.12
2022-08-07T01:31:55.748Z,70.43
2022-08-07T01:34:02.354Z,70.63
2022-08-07T01:36:09.470Z,70.47
2022-08-07T01:38:12.289Z,70.78
2022-08-07T01:40:18.342Z,71.43
2022-08-07T01:42:38.493Z,71.91
2022-08-07T01:44:43.035Z,71.27
2022-08-07T01:46:49.612Z,71.00
2022-08-07T01:48:51.843Z,71.04
2022-08-07T01:50:59.947Z,70.92
2022-08-07T01:54:06.263Z,71.03
2022-08-07T01:55:49.896Z,70.83
2022-08-07T01:58:05.759Z,71.03
2022-08-07T02:00:13.332Z,70.58
2022-08-07T02:03:11.422Z,70.80
2022-08-07T02:04:55.777Z,70.45
2022-08-07T02:07:01.362Z,70.16
2022-08-07T02:09:05.997Z,70.75
2022-08-07T02:11:10.469Z,70.70
2022-08-07T02:13:57.260Z,70.72
2022-08-07T02:15:58.667Z,70.81
2022-08-07T02:18:04.352Z,70.89
2022-08-07T02:20:17.573Z,70.56
2022-08-07T02:22:27.142Z,70.44
2022-08-07T02:24:30.359Z,70.36
2022-08-07T02:26:34.827Z,70.48
2022-08-07T02:28:39.688Z,70.42
2022-08-07T02:30:43.405Z,70.58
2022-08-07T02:33:03.895Z,70.40
2022-08-07T02:35:10.049Z,70.15
2022-08-07T02:37:13.576Z,70.30
2022-08-07T02:39:43.849Z,70.75
2022-08-07T02:41:39.183Z,70.33
2022-08-07T02:43:50.073Z,70.38
2022-08-07T02:45:58.046Z,70.49
2022-08-07T02:48:01.952Z,70.33
2022-08-07T02:50:05.278Z,70.39
2022-08-07T02:52:12.976Z,70.30
2022-08-07T02:54:17.671Z,70.61
2022-08-07T02:56:21.868Z,70.58
2022-08-07T02:58:27.175Z,70.49
2022-08-07T03:00:30.523Z,70.38
2022-08-07T03:02:33.826Z,70.98
2022-08-07T03:04:36.281Z,70.84
2022-08-07T03:06:38.901Z,70.69
2022-08-07T03:08:40.699Z,71.10
2022-08-07T03:10:46.782Z,71.13
2022-08-07T03:12:50.201Z,70.79
2022-08-07T03:14:56.192Z,70.79
2022-08-07T03:16:58.049Z,70.85
2022-08-07T03:19:00.864Z,70.96
2022-08-07T03:21:04.678Z,71.44
2022-08-07T03:23:18.936Z,71.02
2022-08-07T03:25:23.751Z,71.02
2022-08-07T03:27:29.919Z,70.87
2022-08-07T03:29:39.882Z,71.07
2022-08-07T03:31:50.016Z,70.60
2022-08-07T03:33:57.586Z,70.52
2022-08-07T03:35:59.465Z,70.52
2022-08-07T03:38:06.298Z,70.50
2022-08-07T03:40:15.174Z,70.25
2022-08-07T03:42:19.936Z,70.06
2022-08-07T03:44:34.253Z,70.24
2022-08-07T03:46:37.503Z,70.38
2022-08-07T03:49:02.060Z,70.50
2022-08-07T03:51:05.311Z,70.54
2022-08-07T03:53:11.960Z,71.32
2022-08-07T03:55:13.754Z,71.14
2022-08-07T03:58:34.959Z,71.37
2022-08-07T03:59:46.781Z,71.58
2022-08-07T04:02:02.424Z,72.34
2022-08-07T04:04:05.597Z,72.54
2022-08-07T04:06:37.238Z,72.92
2022-08-07T04:08:34.345Z,71.98
2022-08-07T04:10:35.851Z,71.41
2022-08-07T04:12:41.470Z,71.07
2022-08-07T04:14:46.361Z,71.13
2022-08-07T04:16:58.838Z,70.98
2022-08-07T04:19:12.729Z,71.05
2022-08-07T04:21:16.788Z,70.58
2022-08-07T04:23:19.565Z,70.52
2022-08-07T04:25:24.899Z,70.56
2022-08-07T04:27:35.497Z,70.53
2022-08-07T04:29:58.243Z,70.65
2022-08-07T04:32:09.830Z,70.04
2022-08-07T04:34:16.741Z,70.07
2022-08-07T04:36:18.766Z,70.14
2022-08-07T04:38:27.904Z,70.58
2022-08-07T04:40:32.244Z,70.62
2022-08-07T04:42:34.491Z,70.54
2022-08-07T04:44:37.296Z,70.82
2022-08-07T04:47:56.988Z,70.45
2022-08-07T04:50:04.072Z,70.20
2022-08-07T04:52:08.990Z,69.93
2022-08-07T04:54:36.846Z,70.79
2022-08-07T04:58:07.995Z,70.48
2022-08-07T05:00:09.477Z,71.39
2022-08-07T05:01:45.136Z,70.71
2022-08-07T05:04:07.737Z,69.68
2022-08-07T05:06:19.984Z,69.54
2022-08-07T05:08:58.854Z,70.24
2022-08-07T05:10:58.601Z,70.69
2022-08-07T05:14:44.585Z,70.34
2022-08-07T05:15:37.682Z,71.38
2022-08-07T05:17:51.598Z,72.04
2022-08-07T05:19:56.270Z,74.76
2022-08-07T05:22:01.935Z,74.91
2022-08-07T05:24:12.006Z,73.71
2022-08-07T05:26:24.490Z,73.47
2022-08-07T05:28:27.856Z,73.25
2022-08-07T05:30:33.035Z,73.30
2022-08-07T05:32:37.433Z,73.65
2022-08-07T05:34:40.534Z,73.99
2022-08-07T05:36:49.142Z,75.78
2022-08-07T05:39:00.770Z,76.65
2022-08-07T05:41:18.475Z,77.49
2022-08-07T05:43:49.557Z,76.54
2022-08-07T05:45:48.342Z,75.54
2022-08-07T05:48:02.360Z,75.62
2022-08-07T05:50:05.849Z,74.97
2022-08-07T05:52:08.427Z,74.62
2022-08-07T05:54:31.493Z,74.72
2022-08-07T05:56:36.938Z,75.68
2022-08-07T05:58:40.525Z,76.41
2022-08-07T06:00:46.332Z,77.13
2022-08-07T06:02:55.408Z,77.17
2022-08-07T06:05:03.952Z,77.25
2022-08-07T06:07:06.103Z,77.43
2022-08-07T06:09:08.586Z,77.64
2022-08-07T06:11:13.831Z,77.38
2022-08-07T06:13:15.963Z,76.27
2022-08-07T06:15:20.408Z,76.63
2022-08-07T06:17:30.546Z,76.67
2022-08-07T06:19:47.860Z,76.79
2022-08-07T06:22:16.567Z,77.02
2022-08-07T06:24:52.315Z,76.04
2022-08-07T06:26:46.292Z,76.41
2022-08-07T06:28:57.920Z,76.14
2022-08-07T06:31:00.556Z,76.02
2022-08-07T06:33:02.472Z,75.24
2022-08-07T06:35:17.761Z,74.84
2022-08-07T06:37:20.600Z,74.38
2022-08-07T06:40:15.819Z,73.87
2022-08-07T06:42:07.416Z,72.95
2022-08-07T06:44:12.950Z,72.57
2022-08-07T06:46:20.385Z,72.45
2022-08-07T06:48:33.204Z,72.30
2022-08-07T06:50:37.693Z,71.95
2022-08-07T06:52:52.897Z,71.70
2022-08-07T06:55:31.842Z,71.30
2022-08-07T06:57:20.842Z,70.56
2022-08-07T07:00:11.648Z,70.62
2022-08-07T07:02:07.141Z,70.25
2022-08-07T07:04:28.007Z,69.80
2022-08-07T07:06:39.403Z,69.29
2022-08-07T07:08:58.020Z,68.84
2022-08-07T07:11:00.981Z,68.85
2022-08-07T07:13:55.788Z,68.47
2022-08-07T07:15:53.558Z,68.55
2022-08-07T07:18:00.761Z,68.38
2022-08-07T07:20:08.092Z,68.15
2022-08-07T07:22:35.638Z,68.05
2022-08-07T07:24:34.865Z,67.53
2022-08-07T07:26:39.672Z,67.90
2022-08-07T07:29:38.609Z,67.42
2022-08-07T07:31:25.839Z,66.77
2022-08-07T07:33:35.061Z,67.30
2022-08-07T07:35:44.025Z,66.84
2022-08-07T07:38:04.938Z,66.99
2022-08-07T07:40:14.779Z,66.62
2022-08-07T07:42:19.979Z,65.67
2022-08-07T07:44:26.089Z,65.12
2022-08-07T07:46:37.922Z,65.38
2022-08-07T07:48:59.908Z,65.38
2022-08-07T07:51:11.788Z,64.69
2022-08-07T07:53:25.595Z,63.88
2022-08-07T07:55:37.581Z,62.32
2022-08-07T07:57:54.055Z,62.37
2022-08-07T08:00:02.163Z,61.75
2022-08-07T08:02:10.832Z,61.94
2022-08-07T08:04:14.350Z,61.60
2022-08-07T08:06:18.662Z,60.32
2022-08-07T08:08:35.470Z,61.18
2022-08-07T08:10:39.866Z,60.51
2022-08-07T08:12:52.285Z,60.12
2022-08-07T08:15:01.454Z,60.17
2022-08-07T08:17:55.895Z,59.84
2022-08-07T08:20:17.081Z,60.14
2022-08-07T08:22:17.480Z,60.20
2022-08-07T08:24:45.538Z,60.78
2022-08-07T08:27:09.289Z,60.48
2022-08-07T08:29:15.280Z,60.15
2022-08-07T08:31:30.198Z,59.15
2022-08-07T08:33:50.205Z,59.57
2022-08-07T08:35:58.533Z,59.15
2022-08-07T08:38:04.877Z,59.16
2022-08-07T08:40:12.279Z,58.90
2022-08-07T08:42:48.141Z,58.33
2022-08-07T08:45:00.351Z,58.64
2022-08-07T08:47:21.897Z,58.45
2022-08-07T08:49:46.329Z,57.09
2022-08-07T08:52:14.145Z,56.81
2022-08-07T08:54:29.191Z,56.92
2022-08-07T08:56:36.055Z,56.52
2022-08-07T08:58:54.485Z,56.54
2022-08-07T09:01:15.334Z,56.44
2022-08-07T09:03:47.324Z,56.84
2022-08-07T09:06:11.563Z,57.58
2022-08-07T09:08:41.331Z,58.89
2022-08-07T09:10:48.976Z,58.54
2022-08-07T09:13:17.166Z,56.57
2022-08-07T09:16:23.533Z,55.32
2022-08-07T09:18:36.865Z,54.54
2022-08-07T09:20:38.339Z,53.34
2022-08-07T09:24:33.192Z,54.03
2022-08-07T09:25:26.857Z,55.13
2022-08-07T09:28:06.180Z,53.64
2022-08-07T09:30:41.841Z,54.08
2022-08-07T09:33:24.542Z,53.51
2022-08-07T09:36:04.889Z,53.80
2022-08-07T09:38:17.945Z,53.59
2022-08-07T09:40:42.746Z,53.22
2022-08-07T09:43:08.378Z,52.60
2022-08-07T09:47:23.775Z,53.17
2022-08-07T09:48:01.429Z,55.55
2022-08-07T09:50:19.082Z,52.97
2022-08-07T09:52:33.619Z,53.21
2022-08-07T09:54:41.263Z,52.94
2022-08-07T09:57:15.480Z,52.47
2022-08-07T09:59:26.892Z,52.55
2022-08-07T10:02:08.731Z,51.20
2022-08-07T10:04:39.434Z,50.64
2022-08-07T10:06:54.059Z,50.90
2022-08-07T10:09:01.237Z,55.21
2022-08-07T10:12:00.592Z,56.61
2022-08-07T10:14:00.066Z,56.37
2022-08-07T10:16:21.078Z,51.78
2022-08-07T10:19:11.048Z,52.63
2022-08-07T10:22:12.294Z,52.29
2022-08-07T10:24:38.063Z,52.79
2022-08-07T10:26:58.934Z,52.13
2022-08-07T10:29:43.258Z,52.46
2022-08-07T10:32:51.510Z,51.84
2022-08-07T10:35:20.518Z,53.28
2022-08-07T10:38:00.294Z,51.99
2022-08-07T10:40:10.701Z,48.50
2022-08-07T10:42:51.829Z,47.51
2022-08-07T10:45:11.527Z,45.56
2022-08-07T10:47:51.289Z,46.93
2022-08-07T10:50:08.576Z,45.75
2022-08-07T10:52:21.813Z,44.90
2022-08-07T10:55:21.012Z,44.27
2022-08-07T10:57:43.187Z,43.48
2022-08-07T10:59:58.909Z,42.42
2022-08-07T11:02:33.306Z,40.89
2022-08-07T11:05:10.559Z,42.83
2022-08-07T11:07:59.422Z,47.81
2022-08-07T11:10:09.099Z,47.47
2022-08-07T11:12:32.189Z,55.16
2022-08-07T11:15:00.258Z,55.00
2022-08-07T11:17:23.252Z,46.55
2022-08-07T11:19:50.130Z,46.21
2022-08-07T11:22:11.197Z,46.30
2022-08-07T11:24:45.670Z,48.16
2022-08-07T11:27:13.370Z,49.91
2022-08-07T11:29:41.820Z,48.78
2022-08-07T11:32:05.410Z,43.35
2022-08-07T11:34:29.295Z,41.70
2022-08-07T11:36:41.870Z,42.71
2022-08-07T11:38:53.161Z,42.64
2022-08-07T11:41:02.033Z,42.74
2022-08-07T11:43:29.494Z,43.50
2022-08-07T11:46:14.000Z,52.55
2022-08-07T11:48:37.670Z,54.94
2022-08-07T11:51:40.649Z,46.82
2022-08-07T11:54:00.951Z,48.41
2022-08-07T11:56:27.636Z,45.03
2022-08-07T11:58:33.377Z,45.07
2022-08-07T12:01:20.316Z,47.61
2022-08-07T12:03:49.920Z,52.57
2022-08-07T12:06:36.498Z,58.22
2022-08-07T12:08:36.480Z,57.41
2022-08-07T12:10:45.435Z,49.95
2022-08-07T12:12:57.076Z,54.03
2022-08-07T12:15:17.268Z,53.01
2022-08-07T12:17:58.491Z,55.36
2022-08-07T12:20:30.338Z,57.57
2022-08-07T12:22:56.485Z,55.16
2022-08-07T12:26:21.338Z,43.69
2022-08-07T12:28:09.624Z,55.28
2022-08-07T12:30:13.595Z,41.69
2022-08-07T12:32:24.101Z,41.09
2022-08-07T12:34:29.205Z,50.25
2022-08-07T12:36:33.903Z,45.20
2022-08-07T12:38:42.591Z,46.76
2022-08-07T12:40:48.829Z,43.36
2022-08-07T12:42:55.118Z,43.24
2022-08-07T12:45:05.933Z,45.99
2022-08-07T12:47:26.977Z,55.11
2022-08-07T12:49:48.892Z,48.76
2022-08-07T12:52:12.344Z,51.06
2022-08-07T12:54:38.511Z,57.84
2022-08-07T12:56:51.357Z,49.02
2022-08-07T12:58:59.718Z,45.15
2022-08-07T13:01:28.035Z,55.32
2022-08-07T13:04:02.030Z,51.00
2022-08-07T13:06:21.554Z,44.23
2022-08-07T13:08:30.725Z,43.60
2022-08-07T13:10:51.718Z,50.75
2022-08-07T13:13:48.294Z,44.72
2022-08-07T13:16:09.251Z,45.06
2022-08-07T13:18:39.864Z,44.56
2022-08-07T13:20:52.338Z,42.91
2022-08-07T13:23:09.768Z,43.77
2022-08-07T13:25:43.004Z,49.63
2022-08-07T13:28:18.295Z,46.40
2022-08-07T13:30:41.281Z,42.92
2022-08-07T13:32:59.588Z,43.83
2022-08-07T13:35:08.932Z,43.41
2022-08-07T13:37:20.071Z,44.66
2022-08-07T13:40:33.406Z,45.03
2022-08-07T13:41:57.872Z,45.66
2022-08-07T13:44:05.256Z,44.85
2022-08-07T13:46:24.844Z,46.28
2022-08-07T13:48:34.579Z,55.05
2022-08-07T13:50:45.183Z,49.25
2022-08-07T13:53:02.546Z,52.29
2022-08-07T13:55:25.527Z,52.67
2022-08-07T13:57:32.072Z,52.17
2022-08-07T13:59:43.647Z,55.24
2022-08-07T14:01:59.106Z,44.81
2022-08-07T14:04:15.290Z,43.20
2022-08-07T14:06:17.703Z,46.13
2022-08-07T14:08:21.749Z,45.66
2022-08-07T14:10:28.251Z,43.64
2022-08-07T14:12:41.973Z,44.32
2022-08-07T14:15:01.665Z,44.46
2022-08-07T14:17:13.108Z,44.78
2022-08-07T14:20:39.940Z,47.15
2022-08-07T14:22:12.423Z,51.14
2022-08-07T14:24:22.967Z,47.92
2022-08-07T14:26:35.979Z,46.38
2022-08-07T14:28:59.162Z,47.11
2022-08-07T14:31:04.630Z,44.80
2022-08-07T14:33:08.394Z,45.00
2022-08-07T14:35:44.626Z,45.89
2022-08-07T14:37:42.933Z,47.34
2022-08-07T14:40:17.213Z,48.88
2022-08-07T14:42:31.204Z,56.53
2022-08-07T14:44:35.933Z,56.65
2022-08-07T14:49:17.287Z,47.48
2022-08-07T14:51:28.071Z,49.01
2022-08-07T14:54:09.620Z,47.40
2022-08-07T14:56:30.011Z,44.29
2022-08-07T14:58:36.908Z,53.12
2022-08-07T15:00:50.984Z,56.03
2022-08-07T15:02:56.985Z,55.19
2022-08-07T15:05:01.645Z,54.93
2022-08-07T15:07:03.828Z,49.96
2022-08-07T15:09:58.998Z,55.55
2022-08-07T15:11:54.501Z,56.09
2022-08-07T15:14:10.057Z,55.47
2022-08-07T15:16:19.806Z,55.36
2022-08-07T15:18:40.209Z,55.46
2022-08-07T15:20:55.300Z,55.36
2022-08-07T15:23:00.652Z,54.21
2022-08-07T15:25:25.338Z,47.70
2022-08-07T15:28:32.317Z,45.78
2022-08-07T15:30:16.275Z,44.13
2022-08-07T15:34:57.199Z,43.43
2022-08-07T15:37:06.506Z,44.04
2022-08-07T15:39:12.289Z,42.91
2022-08-07T15:41:24.104Z,49.81
2022-08-07T15:46:37.230Z,48.72
2022-08-07T15:51:09.937Z,44.36
2022-08-07T15:53:24.618Z,44.07
2022-08-07T15:56:02.782Z,42.93
2022-08-07T15:58:19.323Z,43.22
2022-08-07T16:00:33.780Z,42.69
2022-08-07T16:02:46.997Z,43.17
2022-08-07T16:04:54.850Z,43.76
2022-08-07T16:07:04.989Z,47.60
2022-08-07T16:09:53.801Z,54.35
2022-08-07T16:12:25.348Z,43.76
2022-08-07T16:15:03.154Z,43.12
2022-08-07T16:18:02.283Z,46.34
2022-08-07T16:20:55.122Z,43.47
2022-08-07T16:23:52.917Z,48.34
2022-08-07T16:25:55.301Z,49.28
2022-08-07T16:30:06.405Z,44.41
2022-08-07T16:31:10.143Z,43.70
2022-08-07T16:34:03.451Z,44.22
2022-08-07T16:35:50.693Z,46.50
2022-08-07T16:38:16.708Z,43.54
2022-08-07T16:40:57.305Z,49.29
2022-08-07T16:44:04.188Z,52.71
2022-08-07T16:50:27.788Z,43.23
2022-08-07T16:52:49.324Z,43.92
2022-08-07T16:55:12.991Z,49.74
2022-08-07T16:58:01.997Z,46.01
2022-08-07T17:00:15.139Z,45.78
2022-08-07T17:02:51.189Z,43.82
2022-08-07T17:06:18.944Z,54.29
2022-08-07T17:07:59.292Z,47.71
2022-08-07T17:10:32.517Z,52.48
2022-08-07T17:12:44.342Z,52.79
2022-08-07T17:15:18.103Z,50.59
2022-08-07T17:17:46.136Z,43.92
2022-08-07T17:20:01.665Z,44.38
2022-08-07T17:22:30.119Z,48.60
2022-08-07T17:24:47.039Z,46.34
2022-08-07T17:26:58.807Z,43.67
2022-08-07T17:30:14.721Z,43.61
2022-08-07T17:32:35.626Z,44.34
2022-08-07T17:34:57.161Z,43.61
2022-08-07T17:38:06.571Z,42.36
2022-08-07T17:40:05.442Z,43.26
2022-08-07T17:42:21.288Z,43.41
2022-08-07T17:44:45.312Z,44.00
2022-08-07T17:46:56.711Z,44.98
2022-08-07T17:49:08.864Z,46.03
2022-08-07T17:52:00.124Z,45.75
2022-08-07T17:54:06.525Z,53.53
2022-08-07T17:56:29.342Z,47.86
2022-08-07T17:58:46.495Z,48.75
2022-08-07T18:00:54.431Z,50.40
2022-08-07T18:03:20.641Z,49.19
2022-08-07T18:06:01.304Z,50.75
2022-08-07T18:08:24.510Z,51.23
2022-08-07T18:10:37.372Z,49.79
2022-08-07T18:13:15.375Z,51.11
2022-08-07T18:15:32.993Z,50.94
2022-08-07T18:18:44.993Z,50.56
2022-08-07T18:21:07.007Z,52.75
2022-08-07T18:22:36.605Z,52.49
2022-08-07T18:24:53.590Z,54.45
2022-08-07T18:27:17.291Z,56.10
2022-08-07T18:30:06.320Z,57.38
2022-08-07T18:32:05.664Z,58.27
2022-08-07T18:35:00.808Z,58.13
2022-08-07T18:38:55.111Z,57.85
2022-08-07T18:40:43.912Z,58.18
2022-08-07T18:43:09.105Z,56.36
2022-08-07T18:45:43.487Z,58.69
2022-08-07T18:47:50.636Z,59.04
2022-08-07T18:50:39.128Z,59.76
2022-08-07T18:52:56.364Z,59.58
2022-08-07T18:55:41.756Z,59.49
2022-08-07T18:57:59.443Z,60.14
2022-08-07T19:00:34.156Z,60.43
2022-08-07T19:02:44.864Z,60.59
2022-08-07T19:05:15.138Z,60.58
2022-08-07T19:07:21.021Z,60.99
2022-08-07T19:09:55.426Z,60.88
2022-08-07T19:12:48.869Z,61.44
2022-08-07T19:16:05.204Z,61.71
2022-08-07T19:18:11.530Z,62.37
2022-08-07T19:20:29.148Z,62.53
2022-08-07T19:22:45.076Z,62.81
2022-08-07T19:24:48.787Z,62.99
2022-08-07T19:27:09.259Z,63.17
2022-08-07T19:31:04.783Z,63.54
2022-08-07T19:32:10.855Z,63.49
2022-08-07T19:34:33.980Z,63.62
2022-08-07T19:36:42.277Z,63.76
2022-08-07T19:38:57.047Z,63.78
2022-08-07T19:41:00.594Z,63.70
2022-08-07T19:43:21.578Z,63.67
2022-08-07T19:46:06.155Z,64.35
2022-08-07T19:48:19.021Z,64.08
2022-08-07T19:50:41.515Z,64.19
2022-08-07T19:52:58.588Z,63.97
2022-08-07T19:55:02.978Z,64.11
2022-08-07T19:58:02.754Z,64.14
2022-08-07T19:59:40.743Z,64.00
2022-08-07T20:01:52.566Z,64.03
2022-08-07T20:04:01.409Z,64.25
2022-08-07T20:06:06.875Z,64.29
2022-08-07T20:08:23.832Z,64.08
2022-08-07T20:10:54.158Z,64.22
2022-08-07T20:13:01.446Z,64.24
2022-08-07T20:15:18.964Z,64.01
2022-08-07T20:17:26.589Z,64.11
2022-08-07T20:19:48.061Z,64.16
2022-08-07T20:21:52.696Z,64.29
2022-08-07T20:24:00.929Z,64.25
2022-08-07T20:26:09.896Z,64.36
2022-08-07T20:28:15.020Z,64.31
2022-08-07T20:30:21.753Z,64.22
2022-08-07T20:32:40.205Z,64.60
2022-08-07T20:34:51.414Z,64.49
2022-08-07T20:36:58.219Z,64.49
2022-08-07T20:39:06.088Z,64.38
2022-08-07T20:41:41.277Z,64.25
2022-08-07T20:43:47.765Z,64.28
2022-08-07T20:46:28.566Z,64.34
2022-08-07T20:48:28.550Z,64.42
2022-08-07T20:50:32.791Z,64.51
2022-08-07T20:52:50.698Z,64.57
2022-08-07T20:54:55.521Z,64.23
2022-08-07T20:57:05.939Z,64.38
2022-08-07T21:00:04.657Z,64.49
2022-08-07T21:01:54.916Z,64.35
2022-08-07T21:04:22.840Z,64.36
2022-08-07T21:06:28.154Z,64.00
2022-08-07T21:09:00.821Z,64.77
2022-08-07T21:11:03.698Z,64.90
2022-08-07T21:13:11.332Z,64.93
2022-08-07T21:15:19.000Z,64.98
2022-08-07T21:18:03.361Z,64.93
2022-08-07T21:19:51.085Z,65.27
2022-08-07T21:22:08.741Z,65.38
2022-08-07T21:24:16.270Z,65.47
2022-08-07T21:26:42.891Z,65.60
2022-08-07T21:28:51.112Z,65.91
2022-08-07T21:31:01.963Z,65.99
2022-08-07T21:33:41.436Z,65.74
2022-08-07T21:36:11.699Z,65.74
2022-08-07T21:38:27.481Z,65.98
2022-08-07T21:41:09.931Z,65.99
2022-08-07T21:43:47.231Z,66.03
2022-08-07T21:46:11.078Z,66.15
2022-08-07T21:48:37.331Z,66.17
2022-08-07T21:51:07.909Z,66.30
2022-08-07T21:53:46.400Z,66.24
2022-08-07T21:56:03.109Z,66.21
2022-08-07T21:58:39.039Z,66.69
2022-08-07T22:00:54.062Z,66.65
2022-08-07T22:03:31.123Z,66.55
2022-08-07T22:05:51.795Z,66.73
2022-08-07T22:07:59.380Z,66.79
2022-08-07T22:10:04.238Z,66.83
2022-08-07T22:12:24.704Z,66.87
2022-08-07T22:14:36.479Z,66.86
2022-08-07T22:16:54.710Z,66.93
2022-08-07T22:19:01.093Z,67.09
2022-08-07T22:21:19.258Z,67.21
2022-08-07T22:23:28.324Z,67.15
2022-08-07T22:25:59.295Z,67.14
2022-08-07T22:28:29.315Z,67.18
2022-08-07T22:30:35.975Z,67.61
2022-08-07T22:32:46.847Z,67.71
2022-08-07T22:34:57.989Z,67.95
2022-08-07T22:37:19.228Z,68.03
2022-08-07T22:39:35.441Z,67.94
2022-08-07T22:42:19.031Z,67.91
2022-08-07T22:44:26.153Z,67.75
2022-08-07T22:47:04.441Z,67.91
2022-08-07T22:49:54.497Z,67.86
2022-08-07T22:52:11.475Z,67.65
2022-08-07T22:54:48.857Z,67.67
2022-08-07T22:57:17.296Z,67.73
2022-08-07T22:59:37.278Z,67.73
2022-08-07T23:02:23.794Z,67.93
2022-08-07T23:06:14.892Z,67.60
2022-08-07T23:07:40.409Z,67.58
2022-08-07T23:10:04.823Z,67.76
2022-08-07T23:12:47.018Z,67.91
2022-08-07T23:14:51.480Z,68.41
2022-08-07T23:17:26.771Z,70.43
2022-08-07T23:19:57.926Z,72.02
2022-08-07T23:22:27.855Z,71.32
2022-08-07T23:24:58.868Z,70.13
2022-08-07T23:27:13.796Z,69.79
2022-08-07T23:30:38.933Z,69.23
2022-08-07T23:34:23.710Z,69.00
2022-08-07T23:35:24.257Z,68.48
2022-08-07T23:37:30.660Z,68.45
2022-08-07T23:39:46.995Z,68.93
2022-08-07T23:42:06.212Z,68.91
2022-08-07T23:44:10.364Z,69.14
2022-08-07T23:46:27.311Z,69.62
2022-08-07T23:48:47.745Z,69.55
2022-08-07T23:53:08.780Z,69.27
2022-08-07T23:53:54.312Z,68.82
2022-08-07T23:56:26.653Z,69.02
2022-08-07T23:58:50.004Z,68.86
